General Aviation Weather

Text Reports

Enter one or more of the following location identifiers separated by a space:

Zip Code, Four-Character ICAO or Three-Character IATA airport codes.

METAR - Aviation Routine Weather Report
KFNB - Falls City, Nebraska
Updated at 11:53 AM GMT on August 30, 2015 (6:53 AM CDT):
METAR KFNB 301153Z AUTO 00000KT 10SM OVC007 15/14 A3004 RMK AO2 SLP168 T01500144 10150 20133 53003
TAF - Terminal Area Forecast
KFNB - Falls City, Nebraska
Updated at 11:53 AM GMT on August 30, 2015 (6:53 AM CDT):
No TAF is currently available for this location.
Decoded:
No decoded TAF is available.
PIREP - Pilot Weather Report
KFNB - Falls City, Nebraska
Updated at 11:53 AM GMT on August 30, 2015 (6:53 AM CDT):
No PIREP is currently available for this location.
AIRMET - Airmens Meteorological Information
KFNB - Falls City, Nebraska
Updated at 11:53 AM GMT on August 30, 2015 (6:53 AM CDT):
No AIRMET is currently available for this location.
SIGMET - Significant Meteorological Information
KFNB - Falls City, Nebraska
Updated at 11:53 AM GMT on August 30, 2015 (6:53 AM CDT):
No SIGMET is currently available for this location.
NOTAM - Notice to Airmen
KFNB - Falls City, Nebraska
Updated at 11:53 AM GMT on August 30, 2015 (6:53 AM CDT):
No NOTAM is currently available for this location.
Forecast Area
KFNB - Falls City, Nebraska
Updated at 11:53 AM GMT on August 30, 2015 (6:53 AM CDT):
No NOTAM is currently available for this location.
Aviation Weather Maps